createdAt,value
2017-06-15T00:00:18.346Z,0
2017-06-15T00:01:19.604Z,0
2017-06-15T00:02:20.901Z,0
2017-06-15T00:03:22.182Z,0
2017-06-15T00:04:23.435Z,0
2017-06-15T00:05:24.783Z,0
2017-06-15T00:06:26.013Z,0
2017-06-15T00:07:27.300Z,0
2017-06-15T00:08:28.549Z,0
2017-06-15T00:09:29.807Z,0
2017-06-15T00:10:31.053Z,0
2017-06-15T00:11:32.304Z,0
2017-06-15T00:12:33.548Z,0
2017-06-15T00:13:34.831Z,0
2017-06-15T00:14:36.111Z,0
2017-06-15T00:15:37.352Z,0
2017-06-15T00:16:38.591Z,0
2017-06-15T00:17:39.890Z,0
2017-06-15T00:18:41.143Z,0
2017-06-15T00:19:42.394Z,0
2017-06-15T00:20:43.627Z,0
2017-06-15T00:21:44.876Z,0
2017-06-15T00:22:46.193Z,0
2017-06-15T00:23:47.446Z,0
2017-06-15T00:24:48.711Z,0
2017-06-15T00:25:50.077Z,0
2017-06-15T00:26:51.327Z,0
2017-06-15T00:27:52.585Z,0
2017-06-15T00:28:53.829Z,0
2017-06-15T00:29:55.095Z,0
2017-06-15T00:30:56.336Z,0
2017-06-15T00:31:57.608Z,0
2017-06-15T00:32:58.831Z,0
2017-06-15T00:34:00.109Z,0
2017-06-15T00:35:01.330Z,0
2017-06-15T00:36:02.591Z,0
2017-06-15T00:37:03.866Z,0
2017-06-15T00:38:05.113Z,0
2017-06-15T00:39:06.377Z,0
2017-06-15T00:40:07.611Z,0
2017-06-15T00:41:08.866Z,0
2017-06-15T00:42:10.119Z,0
2017-06-15T00:43:11.358Z,0
2017-06-15T00:44:12.616Z,0
2017-06-15T00:45:13.868Z,0
2017-06-15T00:46:15.103Z,0
2017-06-15T00:47:16.352Z,0
2017-06-15T00:48:17.599Z,0
2017-06-15T00:49:18.840Z,0
2017-06-15T00:50:20.134Z,0
2017-06-15T00:51:21.403Z,0
2017-06-15T00:52:22.655Z,0
2017-06-15T00:53:23.937Z,0
2017-06-15T00:54:25.169Z,0
2017-06-15T00:55:26.574Z,0
2017-06-15T00:56:27.935Z,0
2017-06-15T00:57:29.176Z,0
2017-06-15T00:58:30.433Z,0
2017-06-15T00:59:31.692Z,0
2017-06-15T01:00:32.949Z,0
2017-06-15T01:01:34.200Z,0
2017-06-15T01:02:35.455Z,0
2017-06-15T01:03:36.756Z,0
2017-06-15T01:04:38.015Z,0
2017-06-15T01:05:39.270Z,0
2017-06-15T01:06:40.526Z,0
2017-06-15T01:07:41.849Z,0
2017-06-15T01:08:43.132Z,0
2017-06-15T01:09:44.366Z,0
2017-06-15T01:10:45.606Z,0
2017-06-15T01:11:46.851Z,0
2017-06-15T01:12:48.111Z,0
2017-06-15T01:13:49.338Z,0
2017-06-15T01:14:50.747Z,0
2017-06-15T01:15:52.014Z,0
2017-06-15T01:16:53.258Z,0
2017-06-15T01:17:54.521Z,0
2017-06-15T01:18:55.806Z,0
2017-06-15T01:19:57.047Z,0
2017-06-15T01:20:58.306Z,0
2017-06-15T01:21:59.549Z,0
2017-06-15T01:23:00.820Z,0
2017-06-15T01:24:02.039Z,0
2017-06-15T01:25:03.289Z,0
2017-06-15T01:26:04.566Z,0
2017-06-15T01:27:05.786Z,0
2017-06-15T01:28:07.016Z,0
2017-06-15T01:29:08.318Z,0
2017-06-15T01:30:09.577Z,0
2017-06-15T01:31:10.825Z,0
2017-06-15T01:32:12.128Z,0
2017-06-15T01:33:13.340Z,0
2017-06-15T01:34:14.671Z,0
2017-06-15T01:35:15.959Z,0
2017-06-15T01:36:17.183Z,0
2017-06-15T01:37:18.479Z,0
2017-06-15T01:38:19.700Z,0
2017-06-15T01:39:20.951Z,0
2017-06-15T01:40:22.188Z,0
2017-06-15T01:41:23.436Z,0
2017-06-15T01:42:24.773Z,0
2017-06-15T01:43:25.963Z,0
2017-06-15T01:44:27.232Z,0
2017-06-15T01:45:28.461Z,0
2017-06-15T01:46:29.702Z,0
2017-06-15T01:47:30.971Z,0
2017-06-15T01:48:32.220Z,0
2017-06-15T01:49:33.469Z,0
2017-06-15T01:50:34.707Z,0
2017-06-15T01:51:35.971Z,0
2017-06-15T01:52:37.216Z,0
2017-06-15T01:53:38.489Z,0
2017-06-15T01:54:39.735Z,0
2017-06-15T01:55:41.023Z,0
2017-06-15T01:56:42.392Z,0
2017-06-15T01:57:43.541Z,0
2017-06-15T01:58:44.799Z,0
2017-06-15T01:59:46.155Z,0
2017-06-15T02:00:47.390Z,0
2017-06-15T02:01:48.643Z,0
2017-06-15T02:02:50.120Z,0
2017-06-15T02:03:51.349Z,0
2017-06-15T02:04:52.662Z,0
2017-06-15T02:05:53.901Z,0
2017-06-15T02:06:55.154Z,0
2017-06-15T02:07:56.403Z,0
2017-06-15T02:08:57.673Z,0
2017-06-15T02:09:58.893Z,0
2017-06-15T02:11:00.219Z,0
2017-06-15T02:12:01.444Z,0
2017-06-15T02:13:02.785Z,0
2017-06-15T02:14:04.034Z,0
2017-06-15T02:15:05.266Z,0
2017-06-15T02:16:06.548Z,0
2017-06-15T02:17:07.787Z,0
2017-06-15T02:18:09.061Z,0
2017-06-15T02:19:10.297Z,0
2017-06-15T02:20:11.524Z,0
2017-06-15T02:21:12.790Z,0
2017-06-15T02:22:14.128Z,0
2017-06-15T02:23:15.387Z,0
2017-06-15T02:24:16.718Z,0
2017-06-15T02:25:17.958Z,0
2017-06-15T02:26:19.198Z,0
2017-06-15T02:27:20.457Z,0
2017-06-15T02:28:21.702Z,0
2017-06-15T02:29:22.943Z,0
2017-06-15T02:30:24.190Z,0
2017-06-15T02:31:25.460Z,0
2017-06-15T02:32:26.695Z,0
2017-06-15T02:33:27.953Z,0
2017-06-15T02:34:29.215Z,0
2017-06-15T02:35:30.501Z,0
2017-06-15T02:36:31.798Z,0
2017-06-15T02:37:33.051Z,0
2017-06-15T02:38:34.301Z,0
2017-06-15T02:39:35.561Z,0
2017-06-15T02:40:36.778Z,0
2017-06-15T02:41:38.138Z,0
2017-06-15T02:42:39.382Z,0
2017-06-15T02:43:40.611Z,0
2017-06-15T02:44:41.862Z,0
2017-06-15T02:45:43.100Z,0
2017-06-15T02:46:44.383Z,0
2017-06-15T02:47:45.618Z,0
2017-06-15T02:48:46.861Z,0
2017-06-15T02:49:48.115Z,0
2017-06-15T02:50:49.370Z,0
2017-06-15T02:51:50.722Z,0
2017-06-15T02:52:51.999Z,0
2017-06-15T02:53:53.248Z,5
2017-06-15T02:54:54.488Z,5
2017-06-15T02:55:55.862Z,5
2017-06-15T02:56:57.135Z,5
2017-06-15T02:57:58.350Z,5
2017-06-15T02:58:59.591Z,5
2017-06-15T03:00:00.898Z,5
2017-06-15T03:01:02.233Z,5
2017-06-15T03:02:03.474Z,5
2017-06-15T03:03:04.732Z,5
2017-06-15T03:04:05.970Z,5
2017-06-15T03:05:07.219Z,5
2017-06-15T03:06:08.475Z,10
2017-06-15T03:07:09.753Z,10
2017-06-15T03:08:11.028Z,10
2017-06-15T03:09:12.273Z,10
2017-06-15T03:10:13.513Z,10
2017-06-15T03:11:14.754Z,10
2017-06-15T03:12:16.014Z,15
2017-06-15T03:13:17.263Z,15
2017-06-15T03:14:18.542Z,15
2017-06-15T03:15:19.784Z,20
2017-06-15T03:16:21.028Z,20
2017-06-15T03:17:22.265Z,20
2017-06-15T03:18:23.538Z,20
2017-06-15T03:19:24.782Z,25
2017-06-15T03:20:26.044Z,25
2017-06-15T03:21:27.391Z,25
2017-06-15T03:22:28.649Z,30
2017-06-15T03:23:29.889Z,30
2017-06-15T03:24:31.160Z,30
2017-06-15T03:25:32.458Z,30
2017-06-15T03:26:33.729Z,30
2017-06-15T03:27:34.995Z,35
2017-06-15T03:28:36.260Z,35
2017-06-15T03:29:37.532Z,35
2017-06-15T03:30:38.766Z,40
2017-06-15T03:31:40.004Z,40
2017-06-15T03:32:41.277Z,45
2017-06-15T03:33:42.545Z,45
2017-06-15T03:34:43.783Z,50
2017-06-15T03:35:45.028Z,50
2017-06-15T03:36:46.364Z,50
2017-06-15T03:37:47.622Z,55
2017-06-15T03:38:48.858Z,55
2017-06-15T03:39:50.160Z,60
2017-06-15T03:40:51.409Z,65
2017-06-15T03:41:52.653Z,65
2017-06-15T03:42:53.903Z,70
2017-06-15T03:43:55.144Z,75
2017-06-15T03:44:56.391Z,75
2017-06-15T03:45:57.662Z,80
2017-06-15T03:46:58.899Z,80
2017-06-15T03:48:00.158Z,85
2017-06-15T03:49:01.430Z,85
2017-06-15T03:50:02.685Z,90
2017-06-15T03:51:04.017Z,95
2017-06-15T03:52:05.274Z,95
2017-06-15T03:53:06.519Z,95
2017-06-15T03:54:07.768Z,100
2017-06-15T03:55:09.017Z,100
2017-06-15T03:56:10.415Z,100
2017-06-15T03:57:11.563Z,105
2017-06-15T03:58:12.874Z,105
2017-06-15T03:59:14.216Z,110
2017-06-15T04:00:15.462Z,110
2017-06-15T04:01:16.726Z,115
2017-06-15T04:02:17.970Z,120
2017-06-15T04:03:19.227Z,125
2017-06-15T04:04:20.475Z,130
2017-06-15T04:05:21.778Z,130
2017-06-15T04:06:23.030Z,130
2017-06-15T04:07:24.286Z,130
2017-06-15T04:08:25.528Z,135
2017-06-15T04:09:26.776Z,135
2017-06-15T04:10:28.119Z,140
2017-06-15T04:11:29.378Z,145
2017-06-15T04:12:30.631Z,140
2017-06-15T04:13:31.882Z,135
2017-06-15T04:14:33.121Z,130
2017-06-15T04:15:34.390Z,130
2017-06-15T04:16:35.639Z,135
2017-06-15T04:17:36.892Z,135
2017-06-15T04:18:38.157Z,135
2017-06-15T04:19:39.383Z,140
2017-06-15T04:20:40.645Z,140
2017-06-15T04:21:41.884Z,145
2017-06-15T04:22:43.126Z,145
2017-06-15T04:23:44.378Z,150
2017-06-15T04:24:45.621Z,155
2017-06-15T04:25:46.942Z,155
2017-06-15T04:26:48.214Z,155
2017-06-15T04:27:49.438Z,155
2017-06-15T04:28:50.707Z,155
2017-06-15T04:29:52.001Z,160
2017-06-15T04:30:53.237Z,165
2017-06-15T04:31:54.467Z,170
2017-06-15T04:32:55.705Z,175
2017-06-15T04:33:56.992Z,180
2017-06-15T04:34:58.291Z,185
2017-06-15T04:35:59.568Z,195
2017-06-15T04:37:00.885Z,200
2017-06-15T04:38:02.134Z,205
2017-06-15T04:39:03.382Z,210
2017-06-15T04:40:04.630Z,210
2017-06-15T04:41:05.936Z,215
2017-06-15T04:42:07.367Z,220
2017-06-15T04:43:08.654Z,225
2017-06-15T04:44:09.897Z,220
2017-06-15T04:45:11.148Z,220
2017-06-15T04:46:12.413Z,225
2017-06-15T04:47:13.647Z,225
2017-06-15T04:48:15.006Z,225
2017-06-15T04:49:16.250Z,225
2017-06-15T04:50:17.498Z,225
2017-06-15T04:51:18.742Z,230
2017-06-15T04:52:20.035Z,230
2017-06-15T04:53:21.250Z,250
2017-06-15T04:54:22.511Z,260
2017-06-15T04:55:23.758Z,285
2017-06-15T04:56:25.079Z,280
2017-06-15T04:57:26.322Z,260
2017-06-15T04:58:27.629Z,250
2017-06-15T04:59:28.890Z,265
2017-06-15T05:00:30.153Z,310
2017-06-15T05:01:31.400Z,300
2017-06-15T05:02:32.649Z,290
2017-06-15T05:03:33.921Z,275
2017-06-15T05:04:35.143Z,275
2017-06-15T05:05:36.392Z,280
2017-06-15T05:06:37.661Z,345
2017-06-15T05:07:39.024Z,340
2017-06-15T05:08:40.269Z,390
2017-06-15T05:09:41.516Z,430
2017-06-15T05:10:42.773Z,420
2017-06-15T05:11:44.023Z,365
2017-06-15T05:12:45.283Z,370
2017-06-15T05:13:46.544Z,375
2017-06-15T05:14:47.771Z,375
2017-06-15T05:15:49.028Z,405
2017-06-15T05:16:50.334Z,400
2017-06-15T05:17:51.558Z,395
2017-06-15T05:18:52.982Z,440
2017-06-15T05:19:54.206Z,440
2017-06-15T05:20:55.446Z,420
2017-06-15T05:21:56.721Z,385
2017-06-15T05:22:57.949Z,340
2017-06-15T05:23:59.193Z,320
2017-06-15T05:25:00.552Z,315
2017-06-15T05:26:01.783Z,330
2017-06-15T05:27:03.040Z,340
2017-06-15T05:28:04.293Z,315
2017-06-15T05:29:05.537Z,320
2017-06-15T05:30:06.796Z,355
2017-06-15T05:31:08.116Z,395
2017-06-15T05:32:09.383Z,380
2017-06-15T05:33:10.667Z,390
2017-06-15T05:34:11.916Z,410
2017-06-15T05:35:13.175Z,440
2017-06-15T05:36:14.435Z,490
2017-06-15T05:37:15.812Z,595
2017-06-15T05:38:16.974Z,720
2017-06-15T05:39:18.302Z,875
2017-06-15T05:40:19.551Z,885
2017-06-15T05:41:20.836Z,1005
2017-06-15T05:42:22.077Z,1070
2017-06-15T05:43:23.319Z,1060
2017-06-15T05:44:24.598Z,1035
2017-06-15T05:45:25.817Z,1100
2017-06-15T05:46:27.072Z,1045
2017-06-15T05:47:28.326Z,990
2017-06-15T05:48:29.613Z,1035
2017-06-15T05:49:30.892Z,1030
2017-06-15T05:50:32.155Z,1010
2017-06-15T05:51:33.424Z,965
2017-06-15T05:52:34.702Z,905
2017-06-15T05:53:35.960Z,890
2017-06-15T05:54:37.222Z,995
2017-06-15T05:55:38.486Z,980
2017-06-15T05:56:39.737Z,1030
2017-06-15T05:57:40.988Z,975
2017-06-15T05:58:42.238Z,1115
2017-06-15T05:59:43.487Z,995
2017-06-15T06:00:44.727Z,1075
2017-06-15T06:01:45.990Z,1165
2017-06-15T06:02:47.241Z,1190
2017-06-15T06:03:48.499Z,1140
2017-06-15T06:04:49.759Z,1095
2017-06-15T06:05:51.018Z,1180
2017-06-15T06:06:52.287Z,1375
2017-06-15T06:07:53.557Z,1435
2017-06-15T06:08:54.874Z,1440
2017-06-15T06:09:56.143Z,1425
2017-06-15T06:10:57.396Z,1400
2017-06-15T06:11:58.703Z,1225
2017-06-15T06:12:59.963Z,1305
2017-06-15T06:14:01.220Z,915
2017-06-15T06:15:02.479Z,1105
2017-06-15T06:16:03.731Z,1395
2017-06-15T06:17:05.058Z,1425
2017-06-15T06:18:06.326Z,1515
2017-06-15T06:19:07.568Z,1500
2017-06-15T06:20:08.835Z,1430
2017-06-15T06:21:10.104Z,1450
2017-06-15T06:22:11.465Z,1425
2017-06-15T06:23:12.728Z,1530
2017-06-15T06:24:13.986Z,1605
2017-06-15T06:25:15.242Z,1600
2017-06-15T06:26:16.525Z,1385
2017-06-15T06:27:17.890Z,1605
2017-06-15T06:28:19.059Z,1640
2017-06-15T06:29:20.558Z,1655
2017-06-15T06:30:21.835Z,1730
2017-06-15T06:31:23.161Z,1680
2017-06-15T06:32:24.359Z,1670
2017-06-15T06:33:25.614Z,1765
2017-06-15T06:34:26.879Z,1830
2017-06-15T06:35:28.139Z,1885
2017-06-15T06:36:29.408Z,1905
2017-06-15T06:37:30.683Z,1930
2017-06-15T06:38:31.936Z,1960
2017-06-15T06:39:33.213Z,1990
2017-06-15T06:40:34.459Z,1990
2017-06-15T06:41:35.711Z,2030
2017-06-15T06:42:36.996Z,1585
2017-06-15T06:43:38.324Z,1625
2017-06-15T06:44:39.625Z,1740
2017-06-15T06:45:40.878Z,1810
2017-06-15T06:46:42.297Z,1460
2017-06-15T06:47:43.553Z,1255
2017-06-15T06:48:44.832Z,1240
2017-06-15T06:49:46.109Z,1345
2017-06-15T06:50:47.352Z,1330
2017-06-15T06:51:48.618Z,1190
2017-06-15T06:52:49.869Z,1120
2017-06-15T06:53:51.124Z,1235
2017-06-15T06:54:52.402Z,1545
2017-06-15T06:55:53.645Z,1690
2017-06-15T06:56:54.908Z,1825
2017-06-15T06:57:56.162Z,1860
2017-06-15T06:58:57.424Z,1845
2017-06-15T06:59:58.671Z,1910
2017-06-15T07:00:59.950Z,1660
2017-06-15T07:02:01.237Z,1300
2017-06-15T07:03:02.480Z,1295
2017-06-15T07:04:03.749Z,1445
2017-06-15T07:05:05.036Z,1600
2017-06-15T07:06:06.288Z,1520
2017-06-15T07:07:07.549Z,1530
2017-06-15T07:08:08.863Z,1250
2017-06-15T07:09:10.122Z,1225
2017-06-15T07:10:11.425Z,1330
2017-06-15T07:11:12.725Z,1390
2017-06-15T07:12:14.005Z,1470
2017-06-15T07:13:15.254Z,1520
2017-06-15T07:14:16.567Z,1625
2017-06-15T07:15:17.840Z,1780
2017-06-15T07:16:19.219Z,1485
2017-06-15T07:17:20.476Z,1640
2017-06-15T07:18:21.748Z,1730
2017-06-15T07:19:23.006Z,1655
2017-06-15T07:20:24.267Z,1660
2017-06-15T07:21:25.526Z,1575
2017-06-15T07:22:26.822Z,1730
2017-06-15T07:23:28.081Z,1800
2017-06-15T07:24:29.330Z,1970
2017-06-15T07:25:30.597Z,1890
2017-06-15T07:26:31.866Z,1705
2017-06-15T07:27:33.120Z,1485
2017-06-15T07:28:34.374Z,1500
2017-06-15T07:29:35.652Z,1510
2017-06-15T07:30:36.988Z,1625
2017-06-15T07:31:38.258Z,1690
2017-06-15T07:32:39.508Z,2035
2017-06-15T07:33:40.753Z,2140
2017-06-15T07:34:42.123Z,2165
2017-06-15T07:35:43.391Z,2040
2017-06-15T07:36:44.712Z,2175
2017-06-15T07:37:45.968Z,1160
2017-06-15T07:38:47.210Z,2090
2017-06-15T07:39:48.513Z,1530
2017-06-15T07:40:49.754Z,1980
2017-06-15T07:41:51.057Z,1130
2017-06-15T07:42:52.315Z,1155
2017-06-15T07:43:53.614Z,1360
2017-06-15T07:44:54.844Z,1365
2017-06-15T07:45:56.107Z,1270
2017-06-15T07:46:57.370Z,1785
2017-06-15T07:47:58.692Z,1925
2017-06-15T07:48:59.950Z,1965
2017-06-15T07:50:01.224Z,2055
2017-06-15T07:51:02.494Z,2050
2017-06-15T07:52:03.744Z,2470
2017-06-15T07:53:05.074Z,2520
2017-06-15T07:54:06.407Z,2565
2017-06-15T07:55:07.644Z,2540
2017-06-15T07:56:08.897Z,2585
2017-06-15T07:57:10.186Z,2685
2017-06-15T07:58:11.409Z,2725
2017-06-15T07:59:12.689Z,2700
2017-06-15T08:00:13.941Z,2715
2017-06-15T08:01:15.196Z,2860
2017-06-15T08:02:16.481Z,2725
2017-06-15T08:03:17.791Z,2935
2017-06-15T08:04:19.187Z,2595
2017-06-15T08:05:20.468Z,2230
2017-06-15T08:06:21.735Z,2190
2017-06-15T08:07:23.009Z,1330
2017-06-15T08:08:24.341Z,1780
2017-06-15T08:09:25.601Z,1865
2017-06-15T08:10:26.909Z,1795
2017-06-15T08:11:28.157Z,1985
2017-06-15T08:12:29.405Z,2025
2017-06-15T08:13:30.775Z,2330
2017-06-15T08:14:32.013Z,2510
2017-06-15T08:15:33.311Z,2565
2017-06-15T08:16:34.526Z,2400
2017-06-15T08:17:35.802Z,2580
2017-06-15T08:18:37.070Z,2750
2017-06-15T08:19:38.329Z,2605
2017-06-15T08:20:39.589Z,2345
2017-06-15T08:21:40.866Z,2160
2017-06-15T08:22:42.241Z,2140
2017-06-15T08:23:43.499Z,2155
2017-06-15T08:24:44.779Z,2245
2017-06-15T08:25:46.045Z,2005
2017-06-15T08:26:47.298Z,1605
2017-06-15T08:27:48.555Z,1660
2017-06-15T08:28:49.896Z,1925
2017-06-15T08:29:51.209Z,2300
2017-06-15T08:30:52.470Z,2545
2017-06-15T08:31:53.758Z,2300
2017-06-15T08:32:55.019Z,2700
2017-06-15T08:33:56.282Z,2780
2017-06-15T08:34:57.601Z,2765
2017-06-15T08:35:58.857Z,2790
2017-06-15T08:37:00.115Z,2750
2017-06-15T08:38:01.373Z,2355
2017-06-15T08:39:02.743Z,2335
2017-06-15T08:40:04.138Z,2350
2017-06-15T08:41:05.395Z,2340
2017-06-15T08:42:06.663Z,2625
2017-06-15T08:43:07.927Z,2655
2017-06-15T08:44:09.188Z,2610
2017-06-15T08:45:10.522Z,2570
2017-06-15T08:46:11.770Z,2430
2017-06-15T08:47:13.073Z,2505
2017-06-15T08:48:14.328Z,2205
2017-06-15T08:49:15.609Z,2265
2017-06-15T08:50:16.900Z,2590
2017-06-15T08:51:18.251Z,2755
2017-06-15T08:52:19.538Z,2600
2017-06-15T08:53:20.967Z,2385
2017-06-15T08:54:22.206Z,2295
2017-06-15T08:55:23.463Z,2620
2017-06-15T08:56:24.746Z,2215
2017-06-15T08:57:26.019Z,2585
2017-06-15T08:58:27.350Z,3125
2017-06-15T08:59:28.690Z,3270
2017-06-15T09:00:29.982Z,3215
2017-06-15T09:01:31.229Z,3405
2017-06-15T09:02:32.624Z,3405
2017-06-15T09:03:33.877Z,3375
2017-06-15T09:04:35.187Z,3320
2017-06-15T09:05:36.444Z,3220
2017-06-15T09:06:37.710Z,3180
2017-06-15T09:07:38.990Z,3405
2017-06-15T09:08:40.224Z,3515
2017-06-15T09:09:41.511Z,3235
2017-06-15T09:10:42.838Z,2995
2017-06-15T09:11:44.106Z,3155
2017-06-15T09:12:45.395Z,3245
2017-06-15T09:13:46.720Z,2670
2017-06-15T09:14:47.991Z,2540
2017-06-15T09:15:49.343Z,2450
2017-06-15T09:16:50.617Z,3470
2017-06-15T09:17:51.883Z,3495
2017-06-15T09:18:53.184Z,3000
2017-06-15T09:19:54.498Z,2695
2017-06-15T09:20:55.789Z,3540
2017-06-15T09:21:57.034Z,3450
2017-06-15T09:22:58.317Z,2615
2017-06-15T09:23:59.583Z,2825
2017-06-15T09:25:00.838Z,2755
2017-06-15T09:26:02.117Z,2905
2017-06-15T09:27:03.380Z,3670
2017-06-15T09:28:04.760Z,3800
2017-06-15T09:29:06.032Z,3700
2017-06-15T09:30:07.312Z,2620
2017-06-15T09:31:08.694Z,3125
2017-06-15T09:32:09.990Z,3385
2017-06-15T09:33:11.259Z,3305
2017-06-15T09:34:12.570Z,2975
2017-06-15T09:35:13.873Z,3195
2017-06-15T09:36:15.148Z,2760
2017-06-15T09:37:16.431Z,3365
2017-06-15T09:38:17.717Z,3565
2017-06-15T09:39:19.095Z,3475
2017-06-15T09:40:20.354Z,3610
2017-06-15T09:41:21.633Z,3640
2017-06-15T09:42:22.928Z,3215
2017-06-15T09:43:24.202Z,3010
2017-06-15T09:44:25.460Z,3125
2017-06-15T09:45:26.756Z,3430
2017-06-15T09:46:28.026Z,3410
2017-06-15T09:47:29.309Z,3185
2017-06-15T09:48:30.744Z,3515
2017-06-15T09:49:32.083Z,3500
2017-06-15T09:50:33.424Z,3755
2017-06-15T09:51:34.742Z,3815
2017-06-15T09:52:36.021Z,3745
2017-06-15T09:53:37.309Z,3665
2017-06-15T09:54:38.579Z,3560
2017-06-15T09:55:39.838Z,3470
2017-06-15T09:56:41.225Z,3525
2017-06-15T09:57:42.558Z,3625
2017-06-15T09:58:43.899Z,3725
2017-06-15T09:59:45.184Z,3925
2017-06-15T10:00:46.451Z,3735
2017-06-15T10:01:47.732Z,3740
2017-06-15T10:02:49.128Z,3845
2017-06-15T10:03:50.445Z,3910
2017-06-15T10:04:51.720Z,3840
2017-06-15T10:05:53.020Z,3245
2017-06-15T10:06:54.285Z,2725
2017-06-15T10:07:55.550Z,3550
2017-06-15T10:08:56.915Z,3085
2017-06-15T10:09:58.184Z,1510
2017-06-15T10:10:59.477Z,1285
2017-06-15T10:12:00.733Z,1050
2017-06-15T10:13:02.001Z,1030
2017-06-15T10:14:03.276Z,1090
2017-06-15T10:15:04.574Z,1115
2017-06-15T10:16:05.922Z,1230
2017-06-15T10:17:07.220Z,1045
2017-06-15T10:18:08.490Z,955
2017-06-15T10:19:09.748Z,940
2017-06-15T10:20:11.030Z,1090
2017-06-15T10:21:12.291Z,1305
2017-06-15T10:22:13.568Z,1150
2017-06-15T10:23:14.851Z,1240
2017-06-15T10:24:16.151Z,1115
2017-06-15T10:25:17.453Z,1090
2017-06-15T10:26:18.756Z,1240
2017-06-15T10:27:20.028Z,2180
2017-06-15T10:28:21.350Z,1155
2017-06-15T10:29:22.613Z,1295
2017-06-15T10:30:23.891Z,1755
2017-06-15T10:31:25.181Z,1120
2017-06-15T10:32:26.445Z,1110
2017-06-15T10:33:27.721Z,1195
2017-06-15T10:34:29.027Z,1065
2017-06-15T10:35:30.249Z,1260
2017-06-15T10:36:31.582Z,1140
2017-06-15T10:37:32.859Z,1180
2017-06-15T10:38:34.131Z,1260
2017-06-15T10:39:35.401Z,1165
2017-06-15T10:40:36.678Z,1130
2017-06-15T10:41:37.982Z,1080
2017-06-15T10:42:39.361Z,1060
2017-06-15T10:43:40.750Z,1030
2017-06-15T10:44:42.011Z,965
2017-06-15T10:45:43.326Z,955
2017-06-15T10:46:44.595Z,950
2017-06-15T10:47:45.884Z,950
2017-06-15T10:48:47.138Z,960
2017-06-15T10:49:48.412Z,965
2017-06-15T10:50:49.689Z,975
2017-06-15T10:51:50.958Z,990
2017-06-15T10:52:52.268Z,970
2017-06-15T10:53:53.596Z,955
2017-06-15T10:54:54.947Z,965
2017-06-15T10:55:56.206Z,980
2017-06-15T10:56:57.485Z,980
2017-06-15T10:57:58.885Z,990
2017-06-15T10:59:00.203Z,985
2017-06-15T11:00:01.454Z,985
2017-06-15T11:01:02.763Z,945
2017-06-15T11:02:04.010Z,965
2017-06-15T11:03:05.311Z,960
2017-06-15T11:04:06.578Z,930
2017-06-15T11:05:07.856Z,915
2017-06-15T11:06:09.156Z,920
2017-06-15T11:07:10.400Z,955
2017-06-15T11:08:11.697Z,930
2017-06-15T11:09:12.969Z,905
2017-06-15T11:10:14.304Z,890
2017-06-15T11:11:15.691Z,865
2017-06-15T11:12:16.962Z,855
2017-06-15T11:13:18.211Z,860
2017-06-15T11:14:19.473Z,840
2017-06-15T11:15:20.746Z,815
2017-06-15T11:16:22.089Z,800
2017-06-15T11:17:23.496Z,770
2017-06-15T11:18:24.796Z,775
2017-06-15T11:19:26.120Z,775
2017-06-15T11:20:27.516Z,760
2017-06-15T11:21:28.778Z,735
2017-06-15T11:22:30.026Z,650
2017-06-15T11:23:31.308Z,630
2017-06-15T11:24:32.645Z,690
2017-06-15T11:25:33.859Z,705
2017-06-15T11:26:35.200Z,610
2017-06-15T11:27:36.479Z,505
2017-06-15T11:28:37.737Z,460
2017-06-15T11:29:38.994Z,440
2017-06-15T11:30:40.281Z,430
2017-06-15T11:31:41.514Z,415
2017-06-15T11:32:42.791Z,410
2017-06-15T11:33:44.087Z,400
2017-06-15T11:34:45.341Z,405
2017-06-15T11:35:46.605Z,405
2017-06-15T11:36:47.880Z,400
2017-06-15T11:37:49.220Z,405
2017-06-15T11:38:50.477Z,400
2017-06-15T11:39:51.746Z,385
2017-06-15T11:40:53.009Z,400
2017-06-15T11:41:54.264Z,405
2017-06-15T11:42:55.519Z,410
2017-06-15T11:43:56.851Z,415
2017-06-15T11:44:58.133Z,400
2017-06-15T11:45:59.398Z,390
2017-06-15T11:47:00.687Z,385
2017-06-15T11:48:01.962Z,380
2017-06-15T11:49:03.242Z,375
2017-06-15T11:50:04.562Z,370
2017-06-15T11:51:05.918Z,375
2017-06-15T11:52:07.188Z,375
2017-06-15T11:53:08.422Z,365
2017-06-15T11:54:09.701Z,355
2017-06-15T11:55:10.955Z,350
2017-06-15T11:56:12.316Z,340
2017-06-15T11:57:13.557Z,340
2017-06-15T11:58:15.014Z,340
2017-06-15T11:59:16.276Z,330
2017-06-15T12:00:17.540Z,325
2017-06-15T12:01:18.885Z,330
2017-06-15T12:02:20.297Z,330
2017-06-15T12:03:21.538Z,325
2017-06-15T12:04:22.839Z,330
2017-06-15T12:05:24.103Z,325
2017-06-15T12:06:25.387Z,325
2017-06-15T12:07:26.622Z,325
2017-06-15T12:08:27.874Z,315
2017-06-15T12:09:29.144Z,310
2017-06-15T12:10:30.395Z,310
2017-06-15T12:11:31.654Z,310
2017-06-15T12:12:32.944Z,310
2017-06-15T12:13:34.195Z,310
2017-06-15T12:14:35.487Z,305
2017-06-15T12:15:36.751Z,300
2017-06-15T12:16:37.986Z,295
2017-06-15T12:17:39.249Z,295
2017-06-15T12:18:40.623Z,295
2017-06-15T12:19:41.884Z,300
2017-06-15T12:20:43.160Z,300
2017-06-15T12:21:44.490Z,295
2017-06-15T12:22:45.764Z,300
2017-06-15T12:23:47.036Z,300
2017-06-15T12:24:48.405Z,305
2017-06-15T12:25:49.645Z,305
2017-06-15T12:26:50.939Z,305
2017-06-15T12:27:52.186Z,305
2017-06-15T12:28:53.455Z,295
2017-06-15T12:29:54.796Z,320
2017-06-15T12:30:56.081Z,350
2017-06-15T12:31:57.330Z,380
2017-06-15T12:32:58.576Z,420
2017-06-15T12:33:59.840Z,455
2017-06-15T12:35:01.135Z,480
2017-06-15T12:36:02.394Z,495
2017-06-15T12:37:03.678Z,475
2017-06-15T12:38:04.933Z,460
2017-06-15T12:39:06.237Z,440
2017-06-15T12:40:07.562Z,440
2017-06-15T12:41:08.837Z,430
2017-06-15T12:42:10.084Z,425
2017-06-15T12:43:11.411Z,430
2017-06-15T12:44:12.675Z,450
2017-06-15T12:45:13.987Z,470
2017-06-15T12:46:15.243Z,475
2017-06-15T12:47:16.504Z,470
2017-06-15T12:48:17.762Z,470
2017-06-15T12:49:19.065Z,470
2017-06-15T12:50:20.328Z,475
2017-06-15T12:51:21.635Z,470
2017-06-15T12:52:22.891Z,465
2017-06-15T12:53:24.148Z,465
2017-06-15T12:54:25.621Z,475
2017-06-15T12:55:27.018Z,495
2017-06-15T12:56:28.319Z,495
2017-06-15T12:57:29.576Z,475
2017-06-15T12:58:30.858Z,465
2017-06-15T12:59:32.120Z,475
2017-06-15T13:00:33.407Z,505
2017-06-15T13:01:34.754Z,545
2017-06-15T13:02:36.021Z,570
2017-06-15T13:03:37.336Z,570
2017-06-15T13:04:38.641Z,570
2017-06-15T13:05:39.891Z,555
2017-06-15T13:06:41.162Z,560
2017-06-15T13:07:42.486Z,575
2017-06-15T13:08:43.743Z,600
2017-06-15T13:09:45.036Z,620
2017-06-15T13:10:46.281Z,625
2017-06-15T13:11:47.544Z,630
2017-06-15T13:12:48.945Z,635
2017-06-15T13:13:50.270Z,635
2017-06-15T13:14:51.531Z,640
2017-06-15T13:15:52.790Z,660
2017-06-15T13:16:54.053Z,660
2017-06-15T13:17:55.350Z,640
2017-06-15T13:18:56.671Z,625
2017-06-15T13:19:57.934Z,600
2017-06-15T13:20:59.245Z,580
2017-06-15T13:22:00.510Z,565
2017-06-15T13:23:01.782Z,550
2017-06-15T13:24:03.070Z,540
2017-06-15T13:25:04.408Z,540
2017-06-15T13:26:05.664Z,540
2017-06-15T13:27:06.957Z,540
2017-06-15T13:28:08.213Z,545
2017-06-15T13:29:09.483Z,550
2017-06-15T13:30:10.851Z,565
2017-06-15T13:31:12.136Z,570
2017-06-15T13:32:13.414Z,570
2017-06-15T13:33:14.668Z,570
2017-06-15T13:34:15.969Z,545
2017-06-15T13:35:17.217Z,510
2017-06-15T13:36:18.705Z,495
2017-06-15T13:37:19.990Z,490
2017-06-15T13:38:21.261Z,520
2017-06-15T13:39:22.544Z,555
2017-06-15T13:40:23.869Z,590
2017-06-15T13:41:25.153Z,595
2017-06-15T13:42:26.423Z,590
2017-06-15T13:43:27.720Z,575
2017-06-15T13:44:29.093Z,565
2017-06-15T13:45:30.409Z,545
2017-06-15T13:46:31.647Z,540
2017-06-15T13:47:32.926Z,515
2017-06-15T13:48:34.179Z,470
2017-06-15T13:49:35.480Z,445
2017-06-15T13:50:36.704Z,425
2017-06-15T13:51:37.957Z,430
2017-06-15T13:52:39.345Z,445
2017-06-15T13:53:40.617Z,445
2017-06-15T13:54:41.876Z,475
2017-06-15T13:55:43.146Z,500
2017-06-15T13:56:44.410Z,525
2017-06-15T13:57:45.701Z,535
2017-06-15T13:58:46.977Z,535
2017-06-15T13:59:48.288Z,535
2017-06-15T14:00:49.539Z,530
2017-06-15T14:01:50.809Z,535
2017-06-15T14:02:52.097Z,540
2017-06-15T14:03:53.366Z,545
2017-06-15T14:04:54.647Z,540
2017-06-15T14:05:55.987Z,530
2017-06-15T14:06:57.257Z,460
2017-06-15T14:07:58.512Z,385